Time;durP1;ratioP1;P1;durP2;ratioP2;P2;SDS_P1;SDS_P2;PMS_P1;PMS_P2;Temp;Humidity;BMP_temperature;BMP_pressure;BME280_temperature;BME280_humidity;BME280_pressure;Samples;Min_cycle;Max_cycle;Signal;HPM_P1;HPM_P2
2021/05/17 00:00:28;;;;;;;;;12.30;10.50;;;;;21.38;56.90;99139.86;479565;114;342354;-74
2021/05/17 00:01:33;;;;;;;;;13.50;12.60;;;;;21.39;56.53;99146.91;479488;114;336781;-78
2021/05/17 00:02:38;;;;;;;;;15.50;12.80;;;;;21.39;56.43;99147.74;470713;115;344309;-77
2021/05/17 00:03:43;;;;;;;;;12.70;10.20;;;;;21.41;56.41;99155.66;473768;115;341894;-77
2021/05/17 00:04:48;;;;;;;;;16.90;14.10;;;;;18.70;56.53;98709.32;479526;114;341763;-77
2021/05/17 00:05:52;;;;;;;;;15.00;11.20;;;;;21.40;56.74;99149.41;479557;114;342968;-77
2021/05/17 00:06:57;;;;;;;;;11.50;11.40;;;;;21.41;56.66;99139.42;479845;114;338201;-77
2021/05/17 00:08:01;;;;;;;;;13.00;11.40;;;;;21.43;56.65;99137.31;479770;114;344207;-78
2021/05/17 00:09:06;;;;;;;;;14.40;10.60;;;;;21.42;57.02;99168.94;480104;114;340036;-78
2021/05/17 00:10:13;;;;;;;;;12.80;11.50;;;;;21.42;57.02;99168.94;479635;114;340240;-77
2021/05/17 00:11:17;;;;;;;;;14.50;12.40;;;;;21.42;56.94;99171.65;479542;114;340993;-77
2021/05/17 00:12:22;;;;;;;;;12.50;12.20;;;;;21.43;57.34;99180.59;479866;114;340599;-78
2021/05/17 00:13:27;;;;;;;;;13.30;11.40;;;;;21.43;57.90;99191.42;479858;114;342295;-74
2021/05/17 00:14:31;;;;;;;;;16.30;13.60;;;;;21.45;57.95;99205.55;479530;114;341229;-76
2021/05/17 00:15:38;;;;;;;;;13.00;12.30;;;;;21.43;57.98;99213.06;479852;114;336128;-76
2021/05/17 00:16:43;;;;;;;;;17.40;14.90;;;;;21.42;58.05;99203.28;479603;114;341562;-75
2021/05/17 00:17:47;;;;;;;;;8.10;7.40;;;;;21.41;61.56;99198.94;480146;114;336594;-75
2021/05/17 00:18:51;;;;;;;;;16.80;12.20;;;;;21.40;60.52;99189.98;479775;114;341891;-76
2021/05/17 00:19:55;;;;;;;;;15.50;12.30;;;;;21.36;62.29;99190.63;480628;112;344022;-75
2021/05/17 00:20:59;;;;;;;;;17.10;14.00;;;;;21.36;62.29;99190.63;486532;112;345409;-75
2021/05/17 00:22:04;;;;;;;;;11.70;9.60;;;;;21.34;63.34;99226.03;484810;112;343232;-75
2021/05/17 00:23:09;;;;;;;;;22.40;20.40;;;;;21.28;68.46;99220.66;486423;112;352549;-75
2021/05/17 00:24:14;;;;;;;;;17.40;15.30;;;;;21.28;68.46;99220.66;484461;112;345020;-74
2021/05/17 00:25:22;;;;;;;;;18.90;16.60;;;;;21.20;67.47;99201.97;485736;112;348958;-74
2021/05/17 00:26:28;;;;;;;;;18.90;16.20;;;;;21.20;67.47;99201.97;486007;112;350760;-73
2021/05/17 00:27:33;;;;;;;;;20.30;18.50;;;;;21.18;67.58;99206.78;484287;112;351226;-74
2021/05/17 00:28:37;;;;;;;;;22.60;17.30;;;;;21.15;67.93;99188.30;485964;112;352283;-73
2021/05/17 00:29:42;;;;;;;;;20.30;17.50;;;;;21.09;66.22;99163.77;484242;112;356390;-75
2021/05/17 00:30:47;;;;;;;;;23.00;18.80;;;;;21.07;65.85;99144.20;486090;112;353717;-74
2021/05/17 00:31:51;;;;;;;;;26.30;19.10;;;;;21.07;65.85;99144.20;484017;112;352269;-75
2021/05/17 00:32:55;;;;;;;;;21.40;19.20;;;;;20.84;66.67;99094.45;486650;112;351886;-75
2021/05/17 00:33:59;;;;;;;;;21.00;18.00;;;;;20.84;66.67;99094.45;484650;112;348943;-74
2021/05/17 00:35:03;;;;;;;;;14.70;12.10;;;;;20.71;67.61;99081.85;486814;112;349101;-76
2021/05/17 00:36:09;;;;;;;;;19.90;18.10;;;;;20.66;67.43;99075.45;484431;112;348008;-75
2021/05/17 00:37:13;;;;;;;;;23.80;19.50;;;;;20.68;68.99;99067.98;476523;114;352392;-75
2021/05/17 00:38:17;;;;;;;;;22.00;21.30;;;;;20.70;69.33;99065.88;477285;114;355488;-74
2021/05/17 00:39:21;;;;;;;;;21.00;19.80;;;;;20.70;69.73;99047.80;484254;112;359393;-75
2021/05/17 00:40:27;;;;;;;;;18.50;17.50;;;;;20.61;66.98;99067.19;485586;112;352870;-77
2021/05/17 00:41:31;;;;;;;;;23.30;20.00;;;;;20.58;67.04;99079.26;486431;112;354632;-78
2021/05/17 00:42:35;;;;;;;;;22.00;20.90;;;;;20.61;70.83;99096.90;486615;112;355238;-78
2021/05/17 00:43:39;;;;;;;;;23.50;19.20;;;;;20.61;70.83;99096.90;484351;112;353921;-78
2021/05/17 00:44:43;;;;;;;;;20.10;20.10;;;;;20.63;69.62;99113.71;486670;112;351044;-76
2021/05/17 00:45:49;;;;;;;;;20.20;20.00;;;;;20.63;69.62;99113.71;484243;112;357921;-77
2021/05/17 00:46:53;;;;;;;;;19.70;18.10;;;;;20.64;68.38;99115.38;484068;112;353054;-76
2021/05/17 00:47:59;;;;;;;;;23.30;20.50;;;;;20.67;68.38;99120.34;486640;112;352948;-76
2021/05/17 00:49:06;;;;;;;;;23.20;20.40;;;;;20.68;70.12;99133.63;483983;112;357239;-79
2021/05/17 00:50:12;;;;;;;;;21.50;19.90;;;;;20.66;71.35;99133.02;486172;112;353282;-80
2021/05/17 00:51:17;;;;;;;;;22.20;20.60;;;;;20.64;72.11;99120.78;483915;112;358494;-78
2021/05/17 00:52:22;;;;;;;;;22.10;19.50;;;;;20.59;70.35;99111.44;476667;114;355872;-79
2021/05/17 00:53:26;;;;;;;;;21.60;19.30;;;;;20.59;69.66;99106.04;477525;114;352969;-80
2021/05/17 00:54:30;;;;;;;;;27.00;22.80;;;;;20.51;71.32;99117.11;486572;112;359096;-80
2021/05/17 00:55:37;;;;;;;;;23.20;19.70;;;;;20.36;72.98;99119.23;484287;112;352584;-79
2021/05/17 00:56:42;;;;;;;;;26.20;24.50;;;;;20.35;72.61;99114.06;476732;114;358866;-77
2021/05/17 00:57:46;;;;;;;;;29.60;24.00;;;;;20.35;72.55;99108.66;477326;114;356939;-77
2021/05/17 00:58:50;;;;;;;;;27.00;24.09;;;;;20.35;72.55;99108.66;486247;112;363379;-75
2021/05/17 00:59:55;;;;;;;;;26.70;23.90;;;;;20.35;72.85;99112.20;484311;112;356402;-80
2021/05/17 01:00:59;;;;;;;;;24.60;21.80;;;;;20.36;73.70;99110.30;486443;112;351827;-76
2021/05/17 01:02:04;;;;;;;;;24.50;21.60;;;;;20.36;70.94;99108.43;484302;112;357636;-75
2021/05/17 01:03:24;;;;;;;;;25.10;22.10;;;;;20.37;70.91;99115.50;482998;112;356884;-77
2021/05/17 01:04:35;;;;;;;;;23.30;19.50;;;;;20.31;72.60;99116.36;480455;113;355380;-77
2021/05/17 01:05:39;;;;;;;;;22.50;20.50;;;;;20.26;71.52;99115.32;482612;112;354729;-78
2021/05/17 01:06:46;;;;;;;;;24.20;20.50;;;;;20.17;72.57;99113.88;483967;112;358265;-77
2021/05/17 01:07:50;;;;;;;;;16.80;14.10;;;;;20.08;73.21;99127.62;486203;112;355367;-75
2021/05/17 01:08:58;;;;;;;;;24.00;21.20;;;;;20.07;73.56;99125.95;484237;112;352180;-76
2021/05/17 01:10:05;;;;;;;;;24.20;20.80;;;;;20.11;72.90;99120.12;486401;112;353406;-75
2021/05/17 01:11:10;;;;;;;;;23.40;22.30;;;;;20.16;75.73;99126.57;483930;112;358138;-73
2021/05/17 01:12:16;;;;;;;;;23.20;21.10;;;;;20.23;71.70;99124.66;486141;111;350087;-75
2021/05/17 01:13:20;;;;;;;;;24.50;22.20;;;;;20.23;71.70;99124.66;484305;112;357480;-74
2021/05/17 01:14:24;;;;;;;;;21.10;18.50;;;;;20.26;72.82;99128.82;486356;112;353497;-73
2021/05/17 01:15:29;;;;;;;;;19.00;17.50;;;;;20.27;70.68;99125.09;484363;112;354257;-72
2021/05/17 01:16:34;;;;;;;;;18.00;16.50;;;;;20.12;72.19;99100.20;484112;112;354416;-73
2021/05/17 01:17:38;;;;;;;;;14.40;11.80;;;;;20.12;72.19;99100.20;479592;114;347557;-74
2021/05/17 01:18:43;;;;;;;;;13.70;13.70;;;;;19.93;71.00;99102.77;479247;114;344611;-73
2021/05/17 01:19:52;;;;;;;;;16.20;14.60;;;;;19.93;71.00;99102.77;486757;112;349941;-72
2021/05/17 01:20:57;;;;;;;;;17.00;15.50;;;;;19.76;71.23;99085.36;484188;112;346998;-72
2021/05/17 01:22:09;;;;;;;;;15.90;13.00;;;;;19.73;72.68;99098.44;484422;112;350489;-71
2021/05/17 01:23:32;;;;;;;;;16.10;15.40;;;;;19.67;72.61;99108.20;486205;112;352840;-72
2021/05/17 01:24:44;;;;;;;;;17.40;15.80;;;;;19.73;72.45;99111.92;484085;112;349785;-72
2021/05/17 01:25:49;;;;;;;;;15.40;15.30;;;;;19.72;74.00;99088.70;484150;112;347396;-72
2021/05/17 01:26:52;;;;;;;;;20.30;17.90;;;;;19.72;74.00;99088.70;484589;112;349842;-73
2021/05/17 01:27:57;;;;;;;;;18.70;15.80;;;;;19.58;74.19;99050.13;486643;112;356588;-72
2021/05/17 01:29:02;;;;;;;;;16.50;15.70;;;;;19.58;74.19;99050.13;484402;112;353271;-73
2021/05/17 01:30:10;;;;;;;;;18.40;17.00;;;;;19.40;76.04;99039.19;484199;112;354804;-73
2021/05/17 01:31:14;;;;;;;;;18.30;14.40;;;;;19.45;75.17;99024.02;479237;114;357920;-72
2021/05/17 01:32:19;;;;;;;;;14.60;13.60;;;;;19.41;75.58;99038.95;479742;113;354692;-71
2021/05/17 01:33:23;;;;;;;;;16.30;14.40;;;;;19.54;76.84;99065.91;484350;112;354443;-70
2021/05/17 01:34:27;;;;;;;;;17.10;15.40;;;;;19.54;76.84;99065.91;486091;112;357391;-72
2021/05/17 01:35:32;;;;;;;;;14.30;12.80;;;;;19.63;76.02;99068.36;479819;114;353588;-71
2021/05/17 01:36:38;;;;;;;;;16.90;14.50;;;;;19.58;75.15;99055.53;471823;116;354538;-71
2021/05/17 01:37:42;;;;;;;;;16.00;13.60;;;;;19.58;75.15;99055.53;479831;114;357698;-73
2021/05/17 01:38:47;;;;;;;;;18.30;14.80;;;;;19.65;75.23;99059.05;484639;112;356305;-71
2021/05/17 01:39:53;;;;;;;;;19.80;17.90;;;;;19.69;76.37;99052.16;486171;112;360101;-71
2021/05/17 01:40:57;;;;;;;;;21.90;19.40;;;;;19.72;75.37;99057.14;484100;112;357020;-74
2021/05/17 01:42:01;;;;;;;;;30.40;27.70;;;;;19.73;75.07;99053.41;486317;112;367086;-72
2021/05/17 01:43:05;;;;;;;;;27.70;25.00;;;;;19.65;75.39;99056.35;486311;112;365210;-73
2021/05/17 01:44:12;;;;;;;;;23.10;21.10;;;;;19.56;75.62;99062.18;484315;112;359274;-75
2021/05/17 01:45:17;;;;;;;;;29.20;25.60;;;;;19.62;75.85;99059.47;483977;112;358012;-71
2021/05/17 01:46:26;;;;;;;;;19.90;18.10;;;;;19.66;76.78;99054.45;486079;112;363691;-73
2021/05/17 01:47:32;;;;;;;;;22.70;20.50;;;;;19.66;75.22;99047.20;483903;112;363716;-70
2021/05/17 01:48:38;;;;;;;;;22.80;19.70;;;;;19.56;76.14;99056.78;486525;112;363559;-69
2021/05/17 01:49:42;;;;;;;;;20.10;20.10;;;;;19.56;75.70;99051.39;484069;112;361907;-71
2021/05/17 01:50:47;;;;;;;;;22.30;18.60;;;;;19.56;76.07;99052.20;486146;112;363324;-72
2021/05/17 01:51:52;;;;;;;;;19.00;17.60;;;;;19.57;75.96;99047.63;486623;112;354368;-72
2021/05/17 01:52:56;;;;;;;;;20.20;16.90;;;;;19.58;75.91;99060.92;484147;112;352930;-70
2021/05/17 01:54:00;;;;;;;;;17.50;17.00;;;;;19.57;75.31;99061.13;486253;112;358113;-70
2021/05/17 01:55:05;;;;;;;;;20.40;17.20;;;;;19.57;75.31;99061.13;479466;114;359345;-69
2021/05/17 01:56:11;;;;;;;;;20.70;19.40;;;;;19.57;76.22;99050.33;479629;114;357756;-70
2021/05/17 01:57:15;;;;;;;;;19.70;16.90;;;;;19.47;76.90;99048.06;484083;112;359385;-71
2021/05/17 01:58:24;;;;;;;;;13.00;11.20;;;;;19.38;76.58;99050.13;486785;112;353851;-72
2021/05/17 01:59:30;;;;;;;;;17.80;16.30;;;;;19.38;76.58;99050.13;484080;112;358706;-72
2021/05/17 02:00:36;;;;;;;;;30.10;26.40;;;;;19.38;76.45;99042.05;485913;112;366886;-74
2021/05/17 02:01:43;;;;;;;;;36.90;33.10;;;;;19.34;76.75;99034.57;483825;112;373582;-71
2021/05/17 02:02:47;;;;;;;;;32.50;30.90;;;;;19.37;76.47;99028.76;484481;112;378415;-72
2021/05/17 02:03:53;;;;;;;;;31.70;27.30;;;;;19.30;77.03;99020.71;485804;112;373312;-71
2021/05/17 02:04:57;;;;;;;;;25.70;21.80;;;;;19.28;77.02;99017.37;484210;112;369424;-70
2021/05/17 02:06:01;;;;;;;;;27.90;24.70;;;;;19.30;76.65;99014.48;484179;112;364674;-70
2021/05/17 02:07:05;;;;;;;;;21.00;20.30;;;;;19.37;76.15;99036.84;486649;112;363395;-70
2021/05/17 02:08:12;;;;;;;;;21.50;19.20;;;;;19.43;75.74;99050.35;484068;112;361485;-69
2021/05/17 02:09:16;;;;;;;;;17.20;17.00;;;;;19.43;75.74;99050.35;486174;112;354395;-69
2021/05/17 02:10:22;;;;;;;;;19.30;17.40;;;;;19.47;75.49;99054.30;486141;112;359185;-68
2021/05/17 02:11:26;;;;;;;;;23.20;19.30;;;;;19.52;75.36;99053.67;486350;112;355855;-70
2021/05/17 02:12:35;;;;;;;;;18.80;17.30;;;;;19.52;77.39;99059.07;483600;112;359220;-70
2021/05/17 02:13:47;;;;;;;;;18.60;16.40;;;;;19.50;76.03;99061.13;486082;112;355713;-72
2021/05/17 02:14:52;;;;;;;;;15.00;14.20;;;;;19.44;75.17;99056.58;486515;112;353084;-71
2021/05/17 02:15:57;;;;;;;;;21.80;17.90;;;;;19.39;75.34;99056.36;484030;112;358944;-70
2021/05/17 02:17:02;;;;;;;;;21.30;19.00;;;;;19.37;75.73;99058.41;486355;112;358450;-71
2021/05/17 02:18:07;;;;;;;;;22.10;20.80;;;;;19.37;76.13;99056.55;486341;112;362600;-70
2021/05/17 02:19:12;;;;;;;;;26.60;24.90;;;;;19.41;75.56;99065.09;486303;111;364695;-71
2021/05/17 02:20:17;;;;;;;;;26.70;22.30;;;;;19.45;75.00;99071.73;484074;112;356057;-72
2021/05/17 02:21:23;;;;;;;;;38.70;33.10;;;;;19.35;75.45;99072.13;485969;112;373760;-71
2021/05/17 02:22:28;;;;;;;;;40.30;35.60;;;;;19.32;75.54;99074.41;484400;112;367967;-71
2021/05/17 02:23:36;;;;;;;;;43.50;36.50;;;;;19.27;76.01;99068.83;482827;112;378344;-70
2021/05/17 02:24:41;;;;;;;;;44.10;36.70;;;;;19.25;75.86;99065.48;486520;112;378772;-71
2021/05/17 02:25:46;;;;;;;;;44.10;38.10;;;;;19.06;76.56;99060.93;486107;112;379776;-71
2021/05/17 02:26:51;;;;;;;;;41.90;34.80;;;;;19.06;76.56;99060.93;485926;112;379654;-72
2021/05/17 02:27:55;;;;;;;;;35.00;30.70;;;;;19.10;76.89;99056.79;479414;114;364439;-70
2021/05/17 02:28:59;;;;;;;;;27.50;26.50;;;;;18.98;77.34;99046.62;479133;114;370872;-71
2021/05/17 02:30:08;;;;;;;;;31.10;26.20;;;;;18.97;77.81;99047.68;483455;112;371853;-71
2021/05/17 02:31:13;;;;;;;;;25.40;23.40;;;;;19.13;76.48;99048.28;485980;112;361473;-71
2021/05/17 02:32:20;;;;;;;;;24.20;23.60;;;;;19.20;76.64;99046.42;484244;112;361083;-73
2021/05/17 02:33:25;;;;;;;;;20.60;20.60;;;;;19.25;76.43;99049.31;486151;112;356058;-74
2021/05/17 02:34:29;;;;;;;;;20.50;18.10;;;;;19.28;77.04;99057.81;486359;112;358853;-73
2021/05/17 02:35:33;;;;;;;;;20.30;18.50;;;;;19.33;76.24;99062.59;485935;112;360528;-72
2021/05/17 02:36:39;;;;;;;;;14.20;14.20;;;;;19.33;76.24;99062.59;486238;111;357267;-75
2021/05/17 02:37:44;;;;;;;;;22.80;18.80;;;;;19.38;75.71;99070.87;484042;112;356132;-74
2021/05/17 02:38:49;;;;;;;;;17.60;16.60;;;;;19.42;76.21;99064.06;486416;112;354211;-71
2021/05/17 02:39:53;;;;;;;;;17.70;16.90;;;;;19.42;76.26;99056.80;479488;114;353230;-71
2021/05/17 02:40:58;;;;;;;;;9.70;8.10;;;;;19.28;75.12;99032.72;479904;114;350424;-75
2021/05/17 02:42:02;;;;;;;;;16.80;15.90;;;;;19.28;75.12;99032.72;484354;112;352309;-73
2021/05/17 02:43:07;;;;;;;;;19.40;17.00;;;;;19.26;75.90;99018.63;483914;112;358699;-74
2021/05/17 02:44:19;;;;;;;;;20.40;15.90;;;;;19.18;76.24;99011.58;483545;112;358919;-73
2021/05/17 02:45:26;;;;;;;;;17.80;17.30;;;;;19.22;76.08;99011.99;484394;112;359929;-75
2021/05/17 02:46:34;;;;;;;;;18.10;15.10;;;;;19.20;76.64;99023.00;485748;111;352338;-74
2021/05/17 02:47:38;;;;;;;;;19.20;15.10;;;;;19.21;76.63;99016.55;486181;112;357492;-76
2021/05/17 02:48:43;;;;;;;;;17.00;16.50;;;;;19.28;76.52;99017.37;486484;112;352588;-74
2021/05/17 02:49:48;;;;;;;;;15.00;13.40;;;;;19.28;76.52;99017.37;484374;112;356815;-73
2021/05/17 02:50:52;;;;;;;;;17.30;13.70;;;;;19.29;76.16;99013.66;483759;112;357846;-73
2021/05/17 02:51:58;;;;;;;;;17.30;15.70;;;;;19.25;76.62;98985.45;486748;112;348393;-74
2021/05/17 02:53:03;;;;;;;;;16.90;14.90;;;;;19.25;76.62;98985.45;486089;112;357339;-76
2021/05/17 02:54:17;;;;;;;;;17.20;16.00;;;;;19.20;76.38;98962.87;484363;112;353639;-77
2021/05/17 02:55:21;;;;;;;;;8.50;8.30;;;;;19.12;76.74;98946.91;486318;112;323806;-75
2021/05/17 02:56:33;;;;;;;;;15.90;15.40;;;;;19.05;77.49;98929.94;483837;112;359560;-72
2021/05/17 02:57:43;;;;;;;;;17.50;14.30;;;;;18.92;78.40;98926.20;486140;112;359378;-76
2021/05/17 02:58:47;;;;;;;;;18.10;17.40;;;;;19.02;77.79;98936.55;484094;112;359511;-78
2021/05/17 03:00:18;;;;;;;;;26.20;24.10;;;;;19.11;77.80;98961.44;483923;112;365059;-77
2021/05/17 03:01:27;;;;;;;;;20.60;17.90;;;;;19.24;78.33;99016.13;486004;112;359443;-77
2021/05/17 03:02:31;;;;;;;;;17.90;16.50;;;;;19.27;77.98;99012.20;486164;112;355856;-76
2021/05/17 03:03:37;;;;;;;;;17.60;16.10;;;;;19.27;77.98;99012.20;484380;112;356037;-75
2021/05/17 03:04:43;;;;;;;;;15.40;14.60;;;;;19.36;76.98;99014.47;486194;111;354577;-76
2021/05/17 03:05:47;;;;;;;;;19.80;17.50;;;;;19.36;76.98;99014.47;484302;112;360920;-75
2021/05/17 03:06:56;;;;;;;;;19.00;16.70;;;;;19.39;76.83;99037.48;486104;112;359888;-76
2021/05/17 03:08:04;;;;;;;;;17.20;15.40;;;;;19.42;76.67;99075.68;484093;112;360157;-75
2021/05/17 03:09:08;;;;;;;;;18.70;17.30;;;;;19.42;76.67;99075.68;486201;112;353371;-76
2021/05/17 03:10:24;;;;;;;;;17.70;17.10;;;;;19.47;76.77;99061.55;484051;112;358662;-76
2021/05/17 03:11:29;;;;;;;;;23.10;20.10;;;;;19.51;76.84;99065.49;484333;112;352342;-77
2021/05/17 03:12:33;;;;;;;;;14.50;14.00;;;;;19.52;77.49;99051.81;479195;114;352430;-75
2021/05/17 03:13:37;;;;;;;;;17.50;16.60;;;;;19.58;76.22;99028.55;479615;113;358355;-74
2021/05/17 03:14:42;;;;;;;;;19.20;17.50;;;;;19.56;75.68;99017.13;486372;112;360427;-74
2021/05/17 03:15:47;;;;;;;;;18.50;17.70;;;;;19.58;75.37;99003.45;484049;112;351805;-74
2021/05/17 03:16:52;;;;;;;;;16.10;15.70;;;;;19.59;75.15;98995.16;486394;112;359825;-73
2021/05/17 03:17:56;;;;;;;;;16.30;16.20;;;;;19.59;75.15;98995.16;483863;112;358422;-74
2021/05/17 03:19:00;;;;;;;;;16.80;16.80;;;;;19.59;74.71;98992.46;484602;112;357060;-79
2021/05/17 03:20:06;;;;;;;;;17.60;16.20;;;;;19.63;74.30;98984.75;486437;112;359815;-76
2021/05/17 03:21:11;;;;;;;;;18.30;15.60;;;;;19.63;74.30;98984.75;484060;112;356685;-74
2021/05/17 03:22:15;;;;;;;;;18.70;15.60;;;;;19.64;74.19;98971.06;484460;112;353107;-75
2021/05/17 03:23:19;;;;;;;;;23.10;19.80;;;;;19.66;74.95;98971.66;486593;112;361370;-73
2021/05/17 03:24:23;;;;;;;;;19.50;18.40;;;;;19.68;74.83;98980.39;484644;112;352828;-72
2021/05/17 03:25:29;;;;;;;;;15.10;14.90;;;;;19.72;82.81;98992.39;484404;112;346972;-85
2021/05/17 03:26:35;;;;;;;;;18.00;16.70;;;;;19.72;82.81;98992.39;484134;112;356817;-72
2021/05/17 03:27:39;;;;;;;;;20.90;18.40;;;;;19.77;78.64;98994.46;486149;112;353034;-72
2021/05/17 03:28:43;;;;;;;;;20.00;18.70;;;;;19.78;76.98;99013.15;486679;112;352182;-72
2021/05/17 03:29:47;;;;;;;;;21.50;19.30;;;;;19.79;76.63;99012.09;484589;112;346659;-73
2021/05/17 03:30:51;;;;;;;;;21.70;20.00;;;;;19.79;76.63;99012.09;484545;112;354902;-75
2021/05/17 03:31:55;;;;;;;;;20.90;18.10;;;;;19.81;76.15;99001.93;484537;112;355610;-73
2021/05/17 03:32:59;;;;;;;;;20.30;17.60;;;;;19.81;76.15;99001.93;486783;112;350963;-73
2021/05/17 03:34:03;;;;;;;;;18.60;17.70;;;;;19.80;76.98;99002.13;486671;112;352551;-72
2021/05/17 03:35:08;;;;;;;;;22.00;20.10;;;;;19.78;76.61;99005.05;484312;112;356643;-79
2021/05/17 03:36:13;;;;;;;;;19.30;17.60;;;;;19.77;76.58;99003.39;484334;112;351623;-73
2021/05/17 03:37:17;;;;;;;;;20.70;16.60;;;;;19.77;76.58;99003.39;484563;112;355484;-72
2021/05/17 03:38:21;;;;;;;;;18.50;18.20;;;;;19.78;76.08;99010.45;484334;112;354341;-75
2021/05/17 03:39:25;;;;;;;;;21.30;18.60;;;;;19.76;76.14;98998.19;484596;112;351014;-76
2021/05/17 03:40:29;;;;;;;;;17.80;16.20;;;;;19.75;76.92;99001.95;484436;112;353370;-74
2021/05/17 03:41:33;;;;;;;;;12.30;10.60;;;;;19.74;76.64;98987.63;484772;112;353162;-78
2021/05/17 03:42:36;;;;;;;;;15.40;13.80;;;;;19.73;77.25;98972.47;484702;112;352772;-75
2021/05/17 03:43:40;;;;;;;;;19.00;17.80;;;;;19.72;76.99;98965.41;486761;112;351062;-74
2021/05/17 03:44:44;;;;;;;;;20.90;17.90;;;;;19.72;77.04;98949.23;484648;112;357469;-73
2021/05/17 03:45:48;;;;;;;;;20.40;18.80;;;;;19.72;76.73;98953.82;484658;112;356919;-74
2021/05/17 03:46:52;;;;;;;;;20.40;17.70;;;;;19.52;76.83;98916.14;484572;112;349643;-74
2021/05/17 03:47:56;;;;;;;;;19.40;16.40;;;;;19.72;76.66;98946.53;484174;112;354012;-75
2021/05/17 03:49:00;;;;;;;;;21.00;17.60;;;;;19.73;76.91;98934.70;484343;112;355875;-72
2021/05/17 03:50:06;;;;;;;;;21.10;19.20;;;;;19.73;77.75;98932.01;486689;112;356994;-74
2021/05/17 03:51:10;;;;;;;;;18.80;17.30;;;;;19.72;77.82;98927.64;486287;112;352315;-71
2021/05/17 03:52:14;;;;;;;;;23.30;19.50;;;;;19.72;78.48;98927.64;486632;112;357359;-72
2021/05/17 03:53:17;;;;;;;;;21.30;19.20;;;;;19.72;78.60;98927.64;486694;112;355872;-70
2021/05/17 03:54:21;;;;;;;;;21.00;17.50;;;;;19.71;78.79;98922.48;486604;112;357168;-71
2021/05/17 03:55:25;;;;;;;;;26.10;21.80;;;;;19.70;78.47;98942.40;486599;112;358130;-72
2021/05/17 03:56:30;;;;;;;;;18.90;17.90;;;;;19.70;78.93;98945.09;486424;112;353331;-69
2021/05/17 03:57:35;;;;;;;;;18.60;17.60;;;;;19.69;78.97;98955.05;484235;112;356893;-72
2021/05/17 03:58:38;;;;;;;;;20.90;19.50;;;;;19.69;78.97;98955.05;486139;112;352409;-73
2021/05/17 03:59:45;;;;;;;;;20.50;18.40;;;;;19.69;80.09;98967.73;486693;112;357035;-69
2021/05/17 04:00:48;;;;;;;;;19.40;16.70;;;;;19.69;79.70;98965.04;486223;112;351239;-72
2021/05/17 04:01:52;;;;;;;;;22.90;18.40;;;;;19.69;79.70;98965.04;486647;112;353939;-74
2021/05/17 04:02:57;;;;;;;;;18.10;16.80;;;;;19.71;79.40;98973.73;486741;112;354555;-72
2021/05/17 04:04:01;;;;;;;;;23.40;18.60;;;;;19.71;80.79;98979.13;483652;112;350349;-73
2021/05/17 04:05:20;;;;;;;;;17.60;14.80;;;;;19.70;79.13;98972.91;486763;112;353799;-72
2021/05/17 04:06:19;;;;;;;;;19.30;18.10;;;;;19.71;79.46;98961.08;483325;112;354104;-75
2021/05/17 04:07:31;;;;;;;;;20.90;19.70;;;;;19.71;79.46;98961.08;485886;112;357182;-73
2021/05/17 04:14:02;;;;;;;;;18.10;18.10;;;;;19.81;79.92;98952.53;468698;116;353496;-71
2021/05/17 04:15:09;;;;;;;;;15.20;14.50;;;;;19.83;79.41;98948.56;469115;116;352281;-72
2021/05/17 04:16:15;;;;;;;;;21.20;15.40;;;;;19.86;79.59;98950.00;468419;116;350467;-72
2021/05/17 04:17:19;;;;;;;;;20.00;17.40;;;;;19.88;78.05;98945.20;469113;116;351523;-76
2021/05/17 04:18:23;;;;;;;;;16.90;16.10;;;;;19.90;77.64;98940.44;469155;116;351692;-73
2021/05/17 04:19:28;;;;;;;;;20.40;15.30;;;;;19.92;78.21;98939.17;468998;116;352174;-72
2021/05/17 04:20:32;;;;;;;;;18.40;15.60;;;;;19.95;78.37;98940.61;468699;116;347343;-70
2021/05/17 04:21:36;;;;;;;;;21.90;17.20;;;;;19.97;77.97;98950.14;469064;116;354202;-77
2021/05/17 04:22:40;;;;;;;;;17.40;17.00;;;;;19.99;78.97;98945.38;469786;116;354092;-77
2021/05/17 04:23:44;;;;;;;;;17.20;14.70;;;;;20.03;79.21;98929.58;486042;112;345545;-74
2021/05/17 04:24:48;;;;;;;;;22.10;18.50;;;;;20.07;76.78;98946.97;486164;112;356123;-71
2021/05/17 04:25:52;;;;;;;;;21.80;19.10;;;;;20.07;76.78;98946.97;486255;112;355972;-73
2021/05/17 04:26:56;;;;;;;;;23.70;16.80;;;;;20.10;77.96;98956.53;486215;112;352131;-79
2021/05/17 04:28:00;;;;;;;;;19.30;17.50;;;;;20.15;78.39;98957.53;486299;112;352941;-74
2021/05/17 04:29:04;;;;;;;;;21.60;17.50;;;;;20.15;78.39;98957.53;486238;112;351873;-73
2021/05/17 04:30:10;;;;;;;;;19.90;17.30;;;;;20.20;77.29;98964.99;485994;112;349905;-73
2021/05/17 04:31:14;;;;;;;;;24.10;19.00;;;;;20.20;77.29;98964.99;485131;111;354620;-71
2021/05/17 04:32:17;;;;;;;;;25.70;21.70;;;;;20.26;78.32;98956.02;486192;112;354584;-72
2021/05/17 04:33:21;;;;;;;;;25.90;19.30;;;;;20.26;78.32;98956.02;486248;112;346069;-74
2021/05/17 04:34:25;;;;;;;;;24.50;19.70;;;;;20.26;77.80;98959.55;486210;112;354722;-73
2021/05/17 04:35:29;;;;;;;;;33.50;22.10;;;;;20.29;76.44;98969.11;485846;112;356526;-73
2021/05/17 04:36:34;;;;;;;;;29.00;20.10;;;;;20.31;75.87;98972.41;485638;112;350800;-75
2021/05/17 04:37:38;;;;;;;;;23.30;19.30;;;;;20.33;74.43;98978.41;486111;112;353278;-74
2021/05/17 04:38:42;;;;;;;;;29.00;20.30;;;;;20.35;73.99;98995.24;485934;112;351224;-74
2021/05/17 04:39:48;;;;;;;;;30.50;22.70;;;;;20.35;73.99;98995.24;486149;112;356348;-73
2021/05/17 04:40:54;;;;;;;;;26.70;19.20;;;;;20.35;74.24;99025.78;484409;112;351030;-72
2021/05/17 04:41:58;;;;;;;;;24.80;20.80;;;;;20.37;74.25;99022.84;485929;112;349502;-73
2021/05/17 04:43:01;;;;;;;;;35.90;22.20;;;;;20.36;74.25;99024.72;486126;112;356094;-73
2021/05/17 04:44:06;;;;;;;;;24.70;18.80;;;;;20.37;72.02;99039.89;486225;112;353737;-73
2021/05/17 04:45:12;;;;;;;;;25.80;19.30;;;;;20.37;72.02;99039.89;485684;111;349021;-73
2021/05/17 04:46:17;;;;;;;;;30.60;24.00;;;;;20.39;71.50;99045.88;485611;112;353906;-71
2021/05/17 04:47:20;;;;;;;;;27.80;24.70;;;;;20.39;71.50;99045.88;485907;112;354335;-74
2021/05/17 04:48:27;;;;;;;;;25.90;20.10;;;;;20.41;73.44;99042.98;485581;111;354203;-75
2021/05/17 04:49:31;;;;;;;;;26.00;22.20;;;;;20.42;73.04;99058.95;485880;112;350801;-73
2021/05/17 04:50:36;;;;;;;;;32.90;21.00;;;;;20.43;72.61;99065.19;485335;112;352109;-71
2021/05/17 04:51:40;;;;;;;;;27.10;22.10;;;;;20.44;73.06;99066.86;486147;112;356377;-73
2021/05/17 04:52:44;;;;;;;;;24.50;20.90;;;;;20.44;73.17;99061.45;486192;112;353210;-72
2021/05/17 04:53:48;;;;;;;;;35.10;25.90;;;;;20.46;73.39;99075.56;486130;112;357113;-73
2021/05/17 04:54:52;;;;;;;;;32.20;26.50;;;;;20.47;73.79;99077.23;486142;112;355152;-74
2021/05/17 04:55:56;;;;;;;;;30.60;22.50;;;;;20.48;73.42;99079.73;486254;112;358629;-73
2021/05/17 04:57:00;;;;;;;;;28.70;22.90;;;;;20.50;73.37;99087.59;486252;112;355151;-72
2021/05/17 04:58:04;;;;;;;;;29.30;23.60;;;;;20.50;73.37;99087.59;486192;112;350842;-74
2021/05/17 04:59:08;;;;;;;;;33.30;22.40;;;;;20.51;72.09;99117.11;485796;112;355344;-73
2021/05/17 05:00:14;;;;;;;;;35.00;29.10;;;;;20.51;72.09;99117.11;485887;112;355864;-75
2021/05/17 05:01:18;;;;;;;;;33.60;25.60;;;;;20.53;71.50;99114.17;485531;112;357135;-73
2021/05/17 05:02:22;;;;;;;;;27.80;20.10;;;;;20.51;72.53;99089.27;486282;112;344171;-75